createdAt,value
2022-07-29T00:00:19.114Z,2.23
2022-07-29T00:02:21.711Z,2.20
2022-07-29T00:04:24.429Z,2.70
2022-07-29T00:06:28.077Z,2.70
2022-07-29T00:08:30.639Z,2.53
2022-07-29T00:10:33.499Z,2.70
2022-07-29T00:12:41.072Z,2.83
2022-07-29T00:14:44.037Z,2.83
2022-07-29T00:16:47.072Z,2.40
2022-07-29T00:18:52.538Z,3.13
2022-07-29T00:20:55.527Z,2.77
2022-07-29T00:22:58.467Z,2.87
2022-07-29T00:25:01.071Z,3.20
2022-07-29T00:27:03.864Z,3.03
2022-07-29T00:29:33.219Z,2.57
2022-07-29T00:31:30.550Z,3.23
2022-07-29T00:33:33.148Z,2.63
2022-07-29T00:35:44.951Z,2.20
2022-07-29T00:37:47.558Z,2.40
2022-07-29T00:39:50.168Z,2.73
2022-07-29T00:41:52.833Z,3.20
2022-07-29T00:43:55.931Z,3.17
2022-07-29T00:45:58.496Z,3.30
2022-07-29T00:48:01.409Z,2.70
2022-07-29T00:50:06.671Z,3.17
2022-07-29T00:52:11.890Z,3.30
2022-07-29T00:54:14.786Z,2.67
2022-07-29T00:56:18.081Z,2.63
2022-07-29T00:58:20.919Z,2.70
2022-07-29T01:00:27.908Z,2.80
2022-07-29T01:02:32.119Z,3.60
2022-07-29T01:04:34.995Z,2.97
2022-07-29T01:06:37.758Z,3.93
2022-07-29T01:08:41.427Z,2.95
2022-07-29T01:10:44.926Z,3.50
2022-07-29T01:12:51.486Z,3.50
2022-07-29T01:14:55.370Z,3.50
2022-07-29T01:17:07.677Z,3.87
2022-07-29T01:19:59.699Z,4.10
2022-07-29T01:22:58.464Z,3.73
2022-07-29T01:25:32.925Z,4.33
2022-07-29T01:28:15.225Z,3.80
2022-07-29T01:30:18.353Z,4.60
2022-07-29T01:32:29.567Z,4.00
2022-07-29T01:34:42.672Z,4.60
2022-07-29T01:36:51.744Z,4.30
2022-07-29T01:39:21.120Z,4.20
2022-07-29T01:41:24.073Z,4.17
2022-07-29T01:43:46.139Z,4.53
2022-07-29T01:45:58.856Z,3.90
2022-07-29T01:48:19.757Z,4.40
2022-07-29T01:50:41.646Z,4.93
2022-07-29T01:52:54.179Z,4.93
2022-07-29T01:55:00.131Z,3.80
2022-07-29T01:57:05.423Z,4.03
2022-07-29T01:59:10.887Z,4.40
2022-07-29T02:01:14.719Z,4.68
2022-07-29T02:03:19.917Z,4.53
2022-07-29T02:05:24.809Z,4.30
2022-07-29T02:07:30.519Z,4.22
2022-07-29T02:09:36.226Z,4.53
2022-07-29T02:11:39.811Z,4.47
2022-07-29T02:13:43.495Z,5.10
2022-07-29T02:15:47.180Z,4.90
2022-07-29T02:17:57.800Z,4.47
2022-07-29T02:20:03.646Z,5.40
2022-07-29T02:22:08.589Z,4.80
2022-07-29T02:24:13.524Z,4.45
2022-07-29T02:26:18.442Z,4.80
2022-07-29T02:28:23.612Z,4.77
2022-07-29T02:30:27.909Z,4.37
2022-07-29T02:32:32.489Z,5.00
2022-07-29T02:34:36.993Z,5.17
2022-07-29T02:36:40.740Z,4.77
2022-07-29T02:38:54.596Z,4.97
2022-07-29T02:41:00.036Z,5.90
2022-07-29T02:43:05.280Z,4.70
2022-07-29T02:45:08.356Z,4.90
2022-07-29T02:47:41.468Z,4.07
2022-07-29T02:49:53.837Z,4.88
2022-07-29T02:52:03.204Z,5.07
2022-07-29T02:54:09.261Z,4.30
2022-07-29T02:56:17.965Z,5.23
2022-07-29T02:58:31.577Z,4.63
2022-07-29T03:00:39.037Z,4.57
2022-07-29T03:02:46.130Z,4.80
2022-07-29T03:04:50.459Z,4.77
2022-07-29T03:06:54.023Z,3.90
2022-07-29T03:08:58.867Z,5.33
2022-07-29T03:11:02.832Z,4.00
2022-07-29T03:13:07.067Z,4.73
2022-07-29T03:15:10.787Z,4.47
2022-07-29T03:17:14.395Z,4.50
2022-07-29T03:19:18.171Z,4.90
2022-07-29T03:21:20.902Z,5.63
2022-07-29T03:23:27.007Z,5.13
2022-07-29T03:25:30.740Z,4.83
2022-07-29T03:27:33.332Z,4.73
2022-07-29T03:29:35.991Z,4.47
2022-07-29T03:31:38.684Z,5.20
2022-07-29T03:33:46.308Z,4.67
2022-07-29T03:35:48.964Z,4.00
2022-07-29T03:37:54.549Z,4.95
2022-07-29T03:39:58.679Z,4.40
2022-07-29T03:42:02.192Z,4.63
2022-07-29T03:44:07.034Z,5.00
2022-07-29T03:46:11.864Z,5.50
2022-07-29T03:48:19.446Z,5.00
2022-07-29T03:50:23.103Z,5.00
2022-07-29T03:52:25.770Z,4.60
2022-07-29T03:54:28.532Z,4.47
2022-07-29T03:56:36.613Z,4.90
2022-07-29T03:58:40.215Z,5.40
2022-07-29T04:00:44.281Z,4.87
2022-07-29T04:02:49.731Z,4.60
2022-07-29T04:04:53.371Z,4.80
2022-07-29T04:06:56.039Z,5.10
2022-07-29T04:08:58.573Z,5.50
2022-07-29T04:11:05.885Z,4.17
2022-07-29T04:13:08.498Z,5.10
2022-07-29T04:15:11.788Z,5.13
2022-07-29T04:17:14.379Z,5.22
2022-07-29T04:19:16.973Z,5.47
2022-07-29T04:21:19.547Z,4.83
2022-07-29T04:23:22.179Z,5.10
2022-07-29T04:25:24.797Z,5.00
2022-07-29T04:27:27.603Z,5.23
2022-07-29T04:29:30.180Z,4.50
2022-07-29T04:31:32.854Z,4.75
2022-07-29T04:33:36.272Z,5.13
2022-07-29T04:35:49.756Z,3.73
2022-07-29T04:37:53.347Z,5.00
2022-07-29T04:39:55.951Z,4.90
2022-07-29T04:41:58.553Z,5.00
2022-07-29T04:44:02.107Z,4.80
2022-07-29T04:46:07.884Z,5.07
2022-07-29T04:48:10.730Z,4.90
2022-07-29T04:50:13.503Z,5.50
2022-07-29T04:52:18.259Z,5.70
2022-07-29T04:54:21.252Z,5.90
2022-07-29T04:56:24.414Z,5.80
2022-07-29T04:58:27.390Z,4.97
2022-07-29T05:00:33.316Z,5.33
2022-07-29T05:02:36.430Z,5.67
2022-07-29T05:04:39.051Z,5.17
2022-07-29T05:06:41.609Z,5.20
2022-07-29T05:08:44.200Z,4.60
2022-07-29T05:10:47.097Z,4.60
2022-07-29T05:12:49.811Z,4.40
2022-07-29T05:14:52.838Z,5.40
2022-07-29T05:16:57.748Z,4.87
2022-07-29T05:19:00.428Z,5.10
2022-07-29T05:21:03.820Z,4.57
2022-07-29T05:23:13.904Z,5.50
2022-07-29T05:25:16.634Z,5.03
2022-07-29T05:27:22.593Z,5.00
2022-07-29T05:29:44.993Z,4.50
2022-07-29T05:31:47.701Z,4.10
2022-07-29T05:33:50.270Z,4.73
2022-07-29T05:35:55.312Z,5.00
2022-07-29T05:38:01.154Z,4.20
2022-07-29T05:40:05.161Z,4.97
2022-07-29T05:42:11.328Z,3.90
2022-07-29T05:44:15.044Z,5.15
2022-07-29T05:46:18.116Z,4.37
2022-07-29T05:48:24.342Z,4.60
2022-07-29T05:50:26.891Z,5.10
2022-07-29T05:52:33.052Z,4.23
2022-07-29T05:54:38.653Z,4.13
2022-07-29T05:56:41.214Z,5.10
2022-07-29T05:58:44.382Z,4.67
2022-07-29T06:00:49.187Z,4.00
2022-07-29T06:02:57.873Z,4.20
2022-07-29T06:05:00.576Z,4.20
2022-07-29T06:07:03.217Z,4.13
2022-07-29T06:09:12.326Z,4.43
2022-07-29T06:11:15.659Z,4.60
2022-07-29T06:13:18.213Z,5.10
2022-07-29T06:15:20.826Z,4.80
2022-07-29T06:17:23.366Z,4.40
2022-07-29T06:19:25.972Z,4.83
2022-07-29T06:21:28.569Z,4.70
2022-07-29T06:23:31.122Z,4.17
2022-07-29T06:25:35.828Z,4.50
2022-07-29T06:27:38.553Z,4.03
2022-07-29T06:29:42.958Z,4.33
2022-07-29T06:31:45.889Z,4.10
2022-07-29T06:33:49.806Z,3.83
2022-07-29T06:35:57.611Z,4.10
2022-07-29T06:38:00.740Z,4.27
2022-07-29T06:40:23.912Z,4.40
2022-07-29T06:42:27.810Z,4.10
2022-07-29T06:44:32.353Z,4.67
2022-07-29T06:46:35.048Z,4.70
2022-07-29T06:48:39.366Z,4.23
2022-07-29T06:50:41.959Z,4.43
2022-07-29T06:52:46.016Z,3.90
2022-07-29T06:54:49.133Z,4.10
2022-07-29T06:56:51.733Z,3.87
2022-07-29T06:58:54.467Z,3.87
2022-07-29T07:00:59.207Z,3.70
2022-07-29T07:03:02.213Z,3.70
2022-07-29T07:05:06.374Z,3.37
2022-07-29T07:07:10.026Z,3.50
2022-07-29T07:09:12.811Z,3.53
2022-07-29T07:11:15.517Z,4.00
2022-07-29T07:13:18.593Z,4.37
2022-07-29T07:15:39.126Z,3.57
2022-07-29T07:17:43.371Z,3.10
2022-07-29T07:19:46.255Z,3.63
2022-07-29T07:21:48.978Z,3.63
2022-07-29T07:23:51.570Z,3.80
2022-07-29T07:25:54.222Z,3.77
2022-07-29T07:27:57.000Z,3.70
2022-07-29T07:29:59.672Z,3.17
2022-07-29T07:32:03.027Z,2.77
2022-07-29T07:34:06.186Z,3.90
2022-07-29T07:36:08.861Z,3.90
2022-07-29T07:38:11.527Z,3.67
2022-07-29T07:40:18.774Z,4.33
2022-07-29T07:42:21.608Z,4.07
2022-07-29T07:44:24.563Z,3.40
2022-07-29T07:46:27.832Z,3.90
2022-07-29T07:48:31.390Z,4.13
2022-07-29T07:50:34.256Z,3.63
2022-07-29T07:52:51.481Z,3.47
2022-07-29T07:54:54.178Z,3.40
2022-07-29T07:56:58.308Z,3.60
2022-07-29T07:59:00.902Z,3.40
2022-07-29T08:01:04.157Z,3.63
2022-07-29T08:03:16.619Z,2.90
2022-07-29T08:05:21.942Z,3.15
2022-07-29T08:07:27.382Z,3.73
2022-07-29T08:09:31.006Z,3.40
2022-07-29T08:11:34.480Z,2.88
2022-07-29T08:13:40.865Z,3.40
2022-07-29T08:15:45.877Z,3.30
2022-07-29T08:17:48.517Z,2.93
2022-07-29T08:19:58.937Z,2.97
2022-07-29T08:22:01.529Z,3.65
2022-07-29T08:24:23.609Z,3.63
2022-07-29T08:26:26.829Z,3.50
2022-07-29T08:28:29.769Z,3.30
2022-07-29T08:30:39.818Z,3.50
2022-07-29T08:32:57.919Z,3.20
2022-07-29T08:35:01.475Z,2.60
2022-07-29T08:37:04.267Z,2.80
2022-07-29T08:39:07.255Z,3.78
2022-07-29T08:41:09.921Z,3.63
2022-07-29T08:43:12.534Z,3.20
2022-07-29T08:45:15.268Z,3.47
2022-07-29T08:47:20.862Z,3.37
2022-07-29T08:49:23.866Z,3.17
2022-07-29T08:51:31.490Z,3.00
2022-07-29T08:53:34.805Z,3.00
2022-07-29T08:55:40.404Z,3.50
2022-07-29T08:57:51.949Z,3.50
2022-07-29T09:00:06.212Z,3.00
2022-07-29T09:02:22.472Z,2.90
2022-07-29T09:04:28.446Z,3.30
2022-07-29T09:06:35.982Z,2.83
2022-07-29T09:08:38.736Z,3.30
2022-07-29T09:10:43.800Z,2.70
2022-07-29T09:12:46.448Z,3.03
2022-07-29T09:14:49.249Z,3.40
2022-07-29T09:16:57.393Z,3.17
2022-07-29T09:19:00.211Z,3.10
2022-07-29T09:21:22.907Z,3.33
2022-07-29T09:23:25.633Z,3.17
2022-07-29T09:25:39.992Z,2.50
2022-07-29T09:27:42.796Z,3.17
2022-07-29T09:29:45.492Z,3.17
2022-07-29T09:31:52.418Z,3.30
2022-07-29T09:33:59.167Z,3.00
2022-07-29T09:36:05.994Z,2.70
2022-07-29T09:38:15.136Z,3.50
2022-07-29T09:40:25.144Z,3.10
2022-07-29T09:42:33.476Z,3.40
2022-07-29T09:44:50.979Z,2.97
2022-07-29T09:47:08.241Z,3.17
2022-07-29T09:49:15.888Z,3.20
2022-07-29T09:51:24.120Z,2.60
2022-07-29T09:53:38.085Z,3.40
2022-07-29T09:55:53.150Z,3.37
2022-07-29T09:58:17.558Z,3.10
2022-07-29T10:00:23.921Z,3.70
2022-07-29T10:02:36.537Z,2.40
2022-07-29T10:04:43.289Z,2.83
2022-07-29T10:07:05.253Z,3.05
2022-07-29T10:09:12.163Z,3.17
2022-07-29T10:11:17.609Z,3.00
2022-07-29T10:13:20.473Z,2.80
2022-07-29T10:15:25.922Z,2.93
2022-07-29T10:17:29.320Z,3.05
2022-07-29T10:19:33.275Z,2.93
2022-07-29T10:21:36.775Z,3.70
2022-07-29T10:23:47.122Z,3.27
2022-07-29T10:25:50.558Z,3.27
2022-07-29T10:27:54.736Z,3.00
2022-07-29T10:29:57.311Z,3.20
2022-07-29T10:32:15.452Z,3.33
2022-07-29T10:34:46.997Z,3.40
2022-07-29T10:37:10.120Z,3.87
2022-07-29T10:39:45.246Z,3.70
2022-07-29T10:42:29.805Z,3.50
2022-07-29T10:44:41.222Z,3.90
2022-07-29T10:46:46.215Z,3.90
2022-07-29T10:49:15.956Z,4.30
2022-07-29T10:51:19.913Z,3.73
2022-07-29T10:53:25.589Z,4.30
2022-07-29T10:55:45.623Z,3.93
2022-07-29T10:58:21.329Z,3.70
2022-07-29T11:00:34.598Z,4.00
2022-07-29T11:02:41.307Z,4.33
2022-07-29T11:04:46.915Z,3.77
2022-07-29T11:07:01.863Z,4.50
2022-07-29T11:09:30.284Z,3.40
2022-07-29T11:11:43.978Z,2.90
2022-07-29T11:13:56.061Z,4.10
2022-07-29T11:15:59.793Z,3.60
2022-07-29T11:18:02.260Z,3.43
2022-07-29T11:20:37.760Z,3.63
2022-07-29T11:22:42.997Z,4.90
2022-07-29T11:25:42.566Z,3.50
2022-07-29T11:27:42.478Z,4.17
2022-07-29T11:29:58.577Z,4.03
2022-07-29T11:32:22.648Z,3.57
2022-07-29T11:34:43.675Z,3.47
2022-07-29T11:37:17.777Z,3.60
2022-07-29T11:39:37.229Z,3.73
2022-07-29T11:41:41.124Z,3.70
2022-07-29T11:43:59.526Z,4.70
2022-07-29T11:46:02.540Z,4.63
2022-07-29T11:48:28.641Z,4.37
2022-07-29T11:50:38.123Z,4.20
2022-07-29T11:55:15.478Z,4.17
2022-07-29T11:57:21.885Z,4.10
2022-07-29T11:59:33.442Z,4.30
2022-07-29T12:01:37.552Z,4.50
2022-07-29T12:03:40.358Z,3.60
2022-07-29T12:05:48.289Z,4.23
2022-07-29T12:07:54.423Z,3.80
2022-07-29T12:09:57.369Z,4.40
2022-07-29T12:12:05.181Z,4.45
2022-07-29T12:14:08.553Z,4.40
2022-07-29T12:16:14.762Z,4.37
2022-07-29T12:18:24.228Z,4.00
2022-07-29T12:20:30.761Z,4.00
2022-07-29T12:22:42.752Z,5.07
2022-07-29T12:24:46.284Z,3.70
2022-07-29T12:27:00.501Z,3.43
2022-07-29T12:29:03.957Z,4.00
2022-07-29T12:31:06.697Z,4.27
2022-07-29T12:33:21.631Z,3.95
2022-07-29T12:35:24.279Z,4.10
2022-07-29T12:37:41.037Z,4.13
2022-07-29T12:39:45.241Z,4.20
2022-07-29T12:41:47.814Z,4.30
2022-07-29T12:43:55.746Z,4.45
2022-07-29T12:45:59.004Z,3.90
2022-07-29T12:48:01.607Z,3.83
2022-07-29T12:50:21.075Z,3.95
2022-07-29T12:52:34.484Z,4.03
2022-07-29T12:54:48.299Z,3.70
2022-07-29T12:57:01.090Z,3.63
2022-07-29T12:59:20.697Z,3.90
2022-07-29T13:01:23.878Z,3.50
2022-07-29T13:03:26.508Z,3.70
2022-07-29T13:05:49.368Z,4.80
2022-07-29T13:07:55.111Z,4.10
2022-07-29T13:10:24.295Z,4.50
2022-07-29T13:12:27.730Z,4.60
2022-07-29T13:14:35.062Z,4.10
2022-07-29T13:17:03.074Z,3.90
2022-07-29T13:19:13.581Z,3.87
2022-07-29T13:21:18.943Z,3.73
2022-07-29T13:23:22.144Z,4.40
2022-07-29T13:25:32.721Z,4.20
2022-07-29T13:27:38.218Z,4.43
2022-07-29T13:29:41.495Z,3.93
2022-07-29T13:31:44.314Z,3.80
2022-07-29T13:33:47.050Z,4.07
2022-07-29T13:35:49.678Z,4.67
2022-07-29T13:37:53.627Z,3.97
2022-07-29T13:39:57.145Z,4.00
2022-07-29T13:42:00.302Z,4.32
2022-07-29T13:44:03.399Z,3.90
2022-07-29T13:46:06.124Z,3.30
2022-07-29T13:48:08.802Z,4.30
2022-07-29T13:50:11.538Z,4.00
2022-07-29T13:52:14.745Z,3.97
2022-07-29T13:54:17.555Z,3.83
2022-07-29T13:56:20.187Z,3.83
2022-07-29T13:58:22.948Z,3.80
2022-07-29T14:00:25.786Z,4.53
2022-07-29T14:02:28.350Z,4.00
2022-07-29T14:04:31.006Z,3.90
2022-07-29T14:06:33.767Z,3.50
2022-07-29T14:08:38.313Z,3.70
2022-07-29T14:10:41.028Z,4.47
2022-07-29T14:12:43.650Z,3.87
2022-07-29T14:14:47.179Z,3.40
2022-07-29T14:16:52.274Z,3.30
2022-07-29T14:18:54.982Z,3.27
2022-07-29T14:20:58.331Z,3.20
2022-07-29T14:23:01.016Z,4.00
2022-07-29T14:25:09.266Z,4.20
2022-07-29T14:27:17.526Z,3.70
2022-07-29T14:29:20.888Z,3.70
2022-07-29T14:31:23.658Z,3.50
2022-07-29T14:33:28.230Z,3.47
2022-07-29T14:35:30.897Z,3.13
2022-07-29T14:37:40.363Z,3.60
2022-07-29T14:39:43.576Z,4.07
2022-07-29T14:41:46.290Z,3.73
2022-07-29T14:43:48.866Z,4.07
2022-07-29T14:45:51.469Z,3.93
2022-07-29T14:47:57.569Z,3.00
2022-07-29T14:50:02.115Z,4.70
2022-07-29T14:52:05.165Z,3.60
2022-07-29T14:54:07.980Z,4.23
2022-07-29T14:56:35.342Z,2.70
2022-07-29T14:58:34.256Z,2.90
2022-07-29T15:00:38.831Z,3.60
2022-07-29T15:03:00.789Z,3.40
2022-07-29T15:05:04.618Z,3.60
2022-07-29T15:07:07.224Z,3.90
2022-07-29T15:09:09.993Z,3.40
2022-07-29T15:11:12.577Z,3.00
2022-07-29T15:13:15.162Z,2.33
2022-07-29T15:15:18.854Z,3.47
2022-07-29T15:17:21.590Z,4.63
2022-07-29T15:19:24.262Z,3.87
2022-07-29T15:21:27.211Z,3.60
2022-07-29T15:23:30.226Z,3.63
2022-07-29T15:25:33.996Z,3.83
2022-07-29T15:27:36.588Z,4.43
2022-07-29T15:29:39.237Z,3.50
2022-07-29T15:31:41.981Z,3.17
2022-07-29T15:33:44.658Z,4.00
2022-07-29T15:35:47.259Z,3.50
2022-07-29T15:37:49.836Z,3.37
2022-07-29T15:39:54.210Z,3.40
2022-07-29T15:42:03.146Z,3.60
2022-07-29T15:44:05.726Z,3.83
2022-07-29T15:46:27.987Z,3.87
2022-07-29T15:48:30.764Z,3.80
2022-07-29T15:50:34.113Z,4.07
2022-07-29T15:52:36.732Z,4.10
2022-07-29T15:54:43.439Z,3.50
2022-07-29T15:56:46.029Z,3.77
2022-07-29T15:58:48.724Z,4.10
2022-07-29T16:00:51.340Z,3.60
2022-07-29T16:02:54.011Z,3.97
2022-07-29T16:04:56.619Z,4.07
2022-07-29T16:06:59.706Z,4.57
2022-07-29T16:09:03.068Z,4.00
2022-07-29T16:11:05.751Z,3.90
2022-07-29T16:13:08.488Z,3.60
2022-07-29T16:15:11.545Z,3.33
2022-07-29T16:17:14.941Z,4.57
2022-07-29T16:19:17.804Z,3.17
2022-07-29T16:21:20.486Z,3.75
2022-07-29T16:23:24.224Z,4.13
2022-07-29T16:25:58.224Z,3.92
2022-07-29T16:27:55.045Z,3.83
2022-07-29T16:29:59.629Z,4.10
2022-07-29T16:32:06.313Z,3.70
2022-07-29T16:34:09.016Z,4.00
2022-07-29T16:36:13.384Z,3.50
2022-07-29T16:38:22.426Z,4.10
2022-07-29T16:40:25.380Z,3.70
2022-07-29T16:42:45.691Z,3.55
2022-07-29T16:44:49.401Z,3.73
2022-07-29T16:46:52.787Z,3.70
2022-07-29T16:49:00.085Z,4.13
2022-07-29T16:51:03.739Z,3.40
2022-07-29T16:53:07.439Z,3.50
2022-07-29T16:55:10.182Z,3.30
2022-07-29T16:57:12.904Z,3.80
2022-07-29T16:59:16.268Z,4.13
2022-07-29T17:01:20.914Z,4.27
2022-07-29T17:03:25.317Z,3.60
2022-07-29T17:05:28.378Z,4.10
2022-07-29T17:07:31.362Z,3.90
2022-07-29T17:09:36.032Z,3.77
2022-07-29T17:11:53.865Z,4.10
2022-07-29T17:13:58.608Z,3.60
2022-07-29T17:16:01.272Z,4.20
2022-07-29T17:18:12.478Z,3.97
2022-07-29T17:20:17.471Z,4.07
2022-07-29T17:22:21.300Z,4.10
2022-07-29T17:24:53.584Z,3.53
2022-07-29T17:26:56.584Z,3.63
2022-07-29T17:28:59.387Z,3.63
2022-07-29T17:31:02.082Z,3.70
2022-07-29T17:33:04.759Z,4.13
2022-07-29T17:35:26.994Z,4.40
2022-07-29T17:37:29.637Z,4.30
2022-07-29T17:39:33.051Z,4.33
2022-07-29T17:41:35.719Z,3.40
2022-07-29T17:43:38.713Z,3.73
2022-07-29T17:45:49.881Z,3.90
2022-07-29T17:47:53.299Z,4.37
2022-07-29T17:49:55.871Z,4.03
2022-07-29T17:52:00.926Z,3.40
2022-07-29T17:54:04.232Z,3.77
2022-07-29T17:56:07.155Z,3.60
2022-07-29T17:58:10.033Z,3.90
2022-07-29T18:00:13.569Z,3.40
2022-07-29T18:02:16.258Z,3.43
2022-07-29T18:04:21.106Z,2.80
2022-07-29T18:06:27.384Z,3.23
2022-07-29T18:08:29.973Z,3.10
2022-07-29T18:10:32.849Z,3.77
2022-07-29T18:12:36.309Z,3.77
2022-07-29T18:14:39.123Z,3.40
2022-07-29T18:16:41.734Z,3.20
2022-07-29T18:18:45.520Z,3.20
2022-07-29T18:20:48.362Z,3.30
2022-07-29T18:22:51.224Z,3.07
2022-07-29T18:24:53.789Z,3.33
2022-07-29T18:26:56.842Z,2.60
2022-07-29T18:28:59.971Z,2.17
2022-07-29T18:31:02.813Z,2.73
2022-07-29T18:33:24.308Z,3.80
2022-07-29T18:35:27.370Z,3.30
2022-07-29T18:38:02.200Z,3.47
2022-07-29T18:39:53.726Z,2.77
2022-07-29T18:41:57.733Z,2.70
2022-07-29T18:44:00.971Z,3.97
2022-07-29T18:46:05.890Z,3.53
2022-07-29T18:48:12.726Z,3.35
2022-07-29T18:50:16.756Z,2.80
2022-07-29T18:52:20.346Z,3.40
2022-07-29T18:54:23.575Z,3.03
2022-07-29T18:56:27.629Z,3.53
2022-07-29T18:58:30.322Z,3.00
2022-07-29T19:00:32.976Z,3.03
2022-07-29T19:02:38.228Z,2.97
2022-07-29T19:04:41.639Z,2.40
2022-07-29T19:06:44.705Z,3.23
2022-07-29T19:08:47.267Z,3.27
2022-07-29T19:10:49.954Z,3.47
2022-07-29T19:12:52.950Z,3.10
2022-07-29T19:14:55.639Z,2.90
2022-07-29T19:16:59.100Z,3.00
2022-07-29T19:19:01.975Z,2.87
2022-07-29T19:21:04.896Z,3.87
2022-07-29T19:23:09.065Z,3.30
2022-07-29T19:25:11.701Z,3.20
2022-07-29T19:27:14.340Z,2.70
2022-07-29T19:29:17.103Z,3.07
2022-07-29T19:31:19.760Z,3.20
2022-07-29T19:33:22.470Z,3.03
2022-07-29T19:35:25.340Z,3.10
2022-07-29T19:37:27.983Z,2.92
2022-07-29T19:39:34.747Z,2.67
2022-07-29T19:41:38.447Z,3.27
2022-07-29T19:43:50.480Z,2.97
2022-07-29T19:45:57.003Z,2.83
2022-07-29T19:48:01.721Z,3.50
2022-07-29T19:50:04.997Z,2.27
2022-07-29T19:52:08.026Z,3.00
2022-07-29T19:54:15.588Z,3.30
2022-07-29T19:56:18.326Z,3.00
2022-07-29T19:58:22.414Z,2.73
2022-07-29T20:00:26.000Z,2.70
2022-07-29T20:02:54.653Z,3.00
2022-07-29T20:05:04.711Z,2.93
2022-07-29T20:07:09.519Z,3.47
2022-07-29T20:09:16.794Z,3.30
2022-07-29T20:11:23.152Z,3.57
2022-07-29T20:13:26.870Z,3.63
2022-07-29T20:15:31.147Z,3.23
2022-07-29T20:17:33.990Z,3.00
2022-07-29T20:19:44.750Z,3.10
2022-07-29T20:21:47.410Z,2.77
2022-07-29T20:23:52.144Z,2.63
2022-07-29T20:25:55.904Z,2.97
2022-07-29T20:28:05.165Z,2.83
2022-07-29T20:30:09.426Z,3.00
2022-07-29T20:32:13.922Z,2.75
2022-07-29T20:34:16.992Z,3.13
2022-07-29T20:36:19.637Z,3.13
2022-07-29T20:38:23.158Z,3.17
2022-07-29T20:40:27.248Z,2.83
2022-07-29T20:42:30.017Z,2.60
2022-07-29T20:44:32.803Z,3.10
2022-07-29T20:46:35.490Z,2.57
2022-07-29T20:48:39.848Z,2.80
2022-07-29T20:50:47.554Z,3.00
2022-07-29T20:52:51.075Z,2.40
2022-07-29T20:54:53.667Z,2.63
2022-07-29T20:56:56.282Z,3.10
2022-07-29T20:58:58.916Z,2.53
2022-07-29T21:01:02.230Z,2.60
2022-07-29T21:03:09.904Z,2.53
2022-07-29T21:05:12.700Z,3.10
2022-07-29T21:07:15.310Z,2.70
2022-07-29T21:09:17.887Z,2.77
2022-07-29T21:11:21.041Z,2.70
2022-07-29T21:13:45.517Z,3.17
2022-07-29T21:16:05.331Z,2.35
2022-07-29T21:18:26.975Z,2.80
2022-07-29T21:20:30.748Z,2.70
2022-07-29T21:22:33.336Z,2.50
2022-07-29T21:24:36.237Z,3.37
2022-07-29T21:26:38.826Z,3.10
2022-07-29T21:28:41.674Z,3.10
2022-07-29T21:30:44.293Z,2.88
2022-07-29T21:32:46.996Z,3.07
2022-07-29T21:34:49.630Z,2.73
2022-07-29T21:36:52.248Z,2.40
2022-07-29T21:38:57.321Z,3.03
2022-07-29T21:41:00.698Z,3.20
2022-07-29T21:43:03.266Z,2.88
2022-07-29T21:45:06.976Z,2.50
2022-07-29T21:47:10.696Z,3.33
2022-07-29T21:49:19.333Z,4.33
2022-07-29T21:51:22.025Z,2.83
2022-07-29T21:53:26.918Z,2.50
2022-07-29T21:55:29.631Z,2.90
2022-07-29T21:57:35.070Z,3.07
2022-07-29T21:59:37.712Z,3.60
2022-07-29T22:01:40.357Z,3.00
2022-07-29T22:03:43.010Z,3.33
2022-07-29T22:05:45.685Z,2.97
2022-07-29T22:07:55.357Z,3.43
2022-07-29T22:09:59.223Z,3.30
2022-07-29T22:12:02.644Z,2.93
2022-07-29T22:14:07.370Z,2.77
2022-07-29T22:16:12.157Z,2.90
2022-07-29T22:18:20.679Z,3.40
2022-07-29T22:20:24.317Z,3.53
2022-07-29T22:22:26.889Z,2.87
2022-07-29T22:24:29.460Z,2.50
2022-07-29T22:26:32.159Z,3.30
2022-07-29T22:28:34.693Z,3.03
2022-07-29T22:30:37.539Z,3.57
2022-07-29T22:32:41.545Z,2.77
2022-07-29T22:34:44.255Z,3.30
2022-07-29T22:36:47.860Z,3.37
2022-07-29T22:38:52.106Z,2.77
2022-07-29T22:40:54.912Z,3.40
2022-07-29T22:43:05.017Z,2.90
2022-07-29T22:45:09.362Z,2.47
2022-07-29T22:47:11.918Z,2.70
2022-07-29T22:49:14.601Z,3.03
2022-07-29T22:51:17.994Z,2.83
2022-07-29T22:53:20.543Z,2.97
2022-07-29T22:55:23.192Z,3.07
2022-07-29T22:57:25.938Z,3.30
2022-07-29T22:59:28.515Z,2.93
2022-07-29T23:01:37.347Z,3.50
2022-07-29T23:03:40.920Z,2.57
2022-07-29T23:05:54.656Z,3.20
2022-07-29T23:07:57.210Z,2.70
2022-07-29T23:09:59.797Z,2.97
2022-07-29T23:12:02.353Z,2.87
2022-07-29T23:14:05.033Z,2.70
2022-07-29T23:16:12.268Z,3.40
2022-07-29T23:18:14.954Z,2.83
2022-07-29T23:20:17.631Z,2.83
2022-07-29T23:22:20.204Z,2.70
2022-07-29T23:24:22.810Z,3.00
2022-07-29T23:26:25.413Z,3.50
2022-07-29T23:28:28.161Z,2.87
2022-07-29T23:30:31.027Z,2.53
2022-07-29T23:32:33.629Z,2.60
2022-07-29T23:34:36.225Z,3.00
2022-07-29T23:36:38.863Z,3.50
2022-07-29T23:38:41.445Z,3.20
2022-07-29T23:40:44.055Z,3.33
2022-07-29T23:42:46.730Z,3.50
2022-07-29T23:44:51.705Z,2.90
2022-07-29T23:46:54.257Z,3.23
2022-07-29T23:48:56.874Z,3.23
2022-07-29T23:51:01.139Z,2.93
2022-07-29T23:53:03.802Z,3.20
2022-07-29T23:55:36.579Z,4.50
2022-07-29T23:57:29.380Z,3.53
2022-07-29T23:59:32.033Z,3.00
